Time;durP1;ratioP1;P1;durP2;ratioP2;P2;SDS_P1;SDS_P2;PMS_P1;PMS_P2;Temp;Humidity;BMP_temperature;BMP_pressure;BME280_temperature;BME280_humidity;BME280_pressure;Samples;Min_cycle;Max_cycle;Signal;HPM_P1;HPM_P2
2022/08/17 00:03:24;;;;;;;8.73;5.40;;;;;;;23.08;45.25;97447.53;8284077;28;20547;-77
2022/08/17 00:07:27;;;;;;;6.87;5.07;;;;;;;23.13;45.22;97442.56;8284049;28;20321;-78
2022/08/17 00:11:32;;;;;;;8.67;4.70;;;;;;;23.06;45.60;97446.88;8283856;28;20224;-77
2022/08/17 00:15:36;;;;;;;8.47;4.90;;;;;;;23.05;45.66;97448.66;8283952;28;20234;-75
2022/08/17 00:19:39;;;;;;;8.63;4.97;;;;;;;22.96;45.77;97449.56;8283569;28;20236;-77
2022/08/17 00:23:43;;;;;;;8.67;4.67;;;;;;;22.97;45.40;97438.03;8283467;28;20237;-75
2022/08/17 00:27:51;;;;;;;7.90;4.47;;;;;;;22.93;45.66;97440.16;8282794;28;20500;-75
2022/08/17 00:31:56;;;;;;;6.93;4.70;;;;;;;22.75;45.99;97440.25;8283230;28;20229;-75
2022/08/17 00:36:00;;;;;;;7.50;4.70;;;;;;;22.67;46.64;97436.75;8283058;28;20435;-75
2022/08/17 00:40:04;;;;;;;9.07;4.80;;;;;;;22.67;46.52;97434.09;8283209;28;20257;-75
2022/08/17 00:44:08;;;;;;;12.80;4.80;;;;;;;22.77;45.96;97432.16;8283104;28;20237;-75
2022/08/17 00:48:13;;;;;;;5.93;4.50;;;;;;;22.67;45.92;97428.81;8282930;28;20244;-75
2022/08/17 00:52:35;;;;;;;6.20;4.70;;;;;;;22.61;46.35;97425.00;8282675;28;20364;-74
2022/08/17 00:56:40;;;;;;;6.67;5.30;;;;;;;22.49;46.93;97421.00;8282787;28;20239;-75
2022/08/17 01:00:46;;;;;;;8.73;5.07;;;;;;;22.54;46.70;97434.53;8282695;28;20232;-75
2022/08/17 01:04:52;;;;;;;9.87;4.87;;;;;;;22.58;46.30;97428.78;8281184;28;20243;-74
2022/08/17 01:08:56;;;;;;;7.73;4.80;;;;;;;22.49;46.47;97434.19;8282526;28;20228;-75
2022/08/17 01:13:01;;;;;;;10.47;5.60;;;;;;;22.48;46.92;97432.53;8282350;28;20225;-75
2022/08/17 01:17:04;;;;;;;13.17;5.17;;;;;;;22.44;47.00;97432.81;8282408;28;20431;-75
2022/08/17 01:21:11;;;;;;;10.80;5.10;;;;;;;22.30;46.99;97424.66;8282461;28;20241;-75
2022/08/17 01:25:16;;;;;;;12.17;5.40;;;;;;;22.34;46.97;97439.19;8281983;28;20237;-75
2022/08/17 01:29:19;;;;;;;9.73;5.67;;;;;;;22.29;47.30;97425.63;8282113;28;20221;-75
2022/08/17 01:33:22;;;;;;;17.70;6.00;;;;;;;22.22;47.51;97414.88;8282299;28;20233;-76
2022/08/17 01:37:29;;;;;;;9.00;5.77;;;;;;;22.35;47.02;97422.38;8282103;28;20233;-75
2022/08/17 01:41:34;;;;;;;12.20;6.00;;;;;;;22.18;47.06;97426.69;8282093;28;20225;-75
2022/08/17 01:45:41;;;;;;;10.10;5.10;;;;;;;22.22;47.22;97430.69;8281994;28;20252;-75
2022/08/17 01:49:44;;;;;;;8.17;5.47;;;;;;;22.12;47.71;97430.75;8281797;28;20233;-76
2022/08/17 01:53:50;;;;;;;8.67;5.53;;;;;;;22.15;47.14;97433.09;8281986;28;20236;-75
2022/08/17 01:57:54;;;;;;;8.37;4.63;;;;;;;22.11;47.07;97429.13;8281406;28;20240;-75
2022/08/17 02:01:57;;;;;;;9.43;5.40;;;;;;;22.06;47.59;97423.47;8281606;28;20233;-75
2022/08/17 02:06:01;;;;;;;7.80;5.20;;;;;;;22.05;47.30;97422.66;8281555;28;20235;-75
2022/08/17 02:10:04;;;;;;;12.13;4.97;;;;;;;21.90;47.91;97416.28;8281589;28;20243;-74
2022/08/17 02:14:23;;;;;;;11.27;5.80;;;;;;;21.82;48.03;97405.69;8281522;28;20237;-75
2022/08/17 02:18:26;;;;;;;13.17;5.53;;;;;;;21.90;47.56;97408.38;8285538;28;20237;-75
2022/08/17 02:22:30;;;;;;;8.47;5.73;;;;;;;21.89;47.93;97413.78;8287314;28;20236;-75
2022/08/17 02:26:33;;;;;;;9.70;6.60;;;;;;;21.93;47.68;97407.22;8286924;28;20237;-76
2022/08/17 02:30:37;;;;;;;9.00;5.80;;;;;;;21.79;47.75;97406.78;8287212;28;20232;-75
2022/08/17 02:35:02;;;;;;;11.53;6.20;;;;;;;21.64;48.14;97410.94;8286586;28;20239;-76
2022/08/17 02:39:07;;;;;;;6.73;6.03;;;;;;;21.73;48.05;97403.94;8286832;28;20259;-75
2022/08/17 02:43:10;;;;;;;9.70;5.73;;;;;;;21.77;47.83;97395.59;8286904;28;20243;-75
2022/08/17 02:47:14;;;;;;;11.73;6.23;;;;;;;21.78;47.50;97397.25;8286552;28;20244;-75
2022/08/17 02:51:17;;;;;;;12.60;6.13;;;;;;;21.70;48.09;97383.16;8286434;28;20233;-75
2022/08/17 02:55:23;;;;;;;13.77;6.30;;;;;;;21.64;48.45;97379.34;8286336;28;20229;-75
2022/08/17 02:59:25;;;;;;;12.50;6.20;;;;;;;21.70;48.27;97383.16;8286428;28;20255;-75
2022/08/17 03:03:30;;;;;;;9.23;6.00;;;;;;;21.57;49.04;97388.81;8286031;28;20532;-76
2022/08/17 03:07:32;;;;;;;9.67;6.23;;;;;;;21.56;48.64;97392.44;8286006;28;20229;-76
2022/08/17 03:11:35;;;;;;;9.60;5.40;;;;;;;21.53;48.71;97384.84;8285915;28;20236;-75
2022/08/17 03:15:39;;;;;;;11.60;6.20;;;;;;;21.46;49.20;97387.25;8285679;28;20233;-75
2022/08/17 03:19:47;;;;;;;11.17;6.40;;;;;;;21.45;48.91;97390.84;8285617;28;20439;-75
2022/08/17 03:23:50;;;;;;;8.60;5.73;;;;;;;21.53;48.48;97380.38;8284859;28;20243;-74
2022/08/17 03:27:57;;;;;;;7.80;5.97;;;;;;;21.47;48.35;97383.63;8284605;28;20467;-76
2022/08/17 03:32:00;;;;;;;9.97;6.10;;;;;;;21.42;48.63;97391.13;8285219;28;20229;-76
2022/08/17 03:36:06;;;;;;;11.23;6.63;;;;;;;21.36;48.69;97389.09;8285202;28;20251;-76
2022/08/17 03:40:11;;;;;;;13.17;6.70;;;;;;;21.44;48.80;97394.47;8284890;28;20240;-75
2022/08/17 03:44:14;;;;;;;10.57;6.20;;;;;;;21.43;48.48;97390.97;8285084;28;20550;-75
2022/08/17 03:57:02;;;;;;;12.73;6.73;;;;;;;21.28;48.64;97395.09;8284224;28;20232;-74
2022/08/17 04:01:06;;;;;;;11.33;7.00;;;;;;;21.24;48.80;97399.00;8284515;28;20422;-75
2022/08/17 04:05:09;;;;;;;8.47;6.43;;;;;;;21.30;48.65;97398.41;8284442;28;20232;-75
2022/08/17 04:09:14;;;;;;;11.23;6.37;;;;;;;21.31;48.67;97400.09;8284260;28;20233;-75
2022/08/17 04:13:17;;;;;;;11.40;6.53;;;;;;;21.32;48.76;97416.69;8284064;28;20567;-75
2022/08/17 04:17:28;;;;;;;8.07;6.23;;;;;;;21.18;49.21;97418.88;8283728;28;20241;-76
2022/08/17 04:21:31;;;;;;;9.77;6.67;;;;;;;21.23;48.98;97419.25;8283935;28;20240;-75
2022/08/17 04:25:38;;;;;;;7.40;6.13;;;;;;;21.08;49.51;97418.94;8283410;28;20246;-75
2022/08/17 04:29:41;;;;;;;8.10;6.37;;;;;;;21.12;49.40;97422.09;8283349;28;20226;-75
2022/08/17 04:33:57;;;;;;;9.33;6.50;;;;;;;21.03;49.86;97420.34;8283301;28;20229;-75
2022/08/17 04:38:00;;;;;;;15.07;7.70;;;;;;;21.04;49.04;97416.75;8283453;28;20235;-76
2022/08/17 04:42:15;;;;;;;15.40;7.30;;;;;;;21.24;48.58;97423.53;8283034;28;20229;-75
2022/08/17 04:46:20;;;;;;;12.70;7.53;;;;;;;21.26;49.03;97429.47;8282993;28;20239;-75
2022/08/17 04:50:23;;;;;;;14.10;7.70;;;;;;;21.32;48.78;97428.06;8283251;28;20540;-76
2022/08/17 04:54:26;;;;;;;10.10;7.03;;;;;;;21.36;49.18;97428.59;8282877;28;20264;-75
2022/08/17 04:58:31;;;;;;;9.20;6.90;;;;;;;21.31;49.45;97433.50;8282732;28;20233;-76
2022/08/17 05:02:35;;;;;;;13.90;7.20;;;;;;;21.38;49.92;97429.25;8282543;28;20235;-75
2022/08/17 05:06:53;;;;;;;10.67;7.07;;;;;;;21.40;50.11;97437.84;8282264;28;20240;-75
2022/08/17 05:10:56;;;;;;;12.47;7.40;;;;;;;21.66;49.79;97448.50;8282560;28;20240;-76
2022/08/17 05:15:00;;;;;;;13.40;7.70;;;;;;;21.62;49.92;97441.88;8282471;28;20237;-76
2022/08/17 05:19:03;;;;;;;13.50;7.70;;;;;;;21.70;49.64;97447.22;8282129;28;20236;-76
2022/08/17 05:23:08;;;;;;;11.33;7.67;;;;;;;21.81;48.84;97449.63;8282328;28;20402;-76
2022/08/17 05:27:12;;;;;;;8.47;7.47;;;;;;;21.90;48.58;97450.53;8281850;28;20236;-76
2022/08/17 05:31:22;;;;;;;15.57;7.80;;;;;;;21.92;48.23;97451.22;8281929;28;20240;-76
2022/08/17 05:35:25;;;;;;;8.57;7.70;;;;;;;22.06;48.63;97447.19;8282121;28;20235;-75
2022/08/17 05:39:28;;;;;;;9.10;7.07;;;;;;;22.16;48.80;97447.97;8282127;28;20240;-76
2022/08/17 05:43:34;;;;;;;11.50;7.63;;;;;;;22.24;48.85;97448.00;8281968;28;20236;-76
2022/08/17 05:47:38;;;;;;;11.40;7.30;;;;;;;22.52;48.73;97454.97;8281566;28;20252;-76
2022/08/17 05:51:54;;;;;;;10.77;6.70;;;;;;;23.06;46.82;97452.16;8283353;28;20225;-76
2022/08/17 05:56:04;;;;;;;11.23;7.17;;;;;;;23.06;47.24;97442.41;8287972;28;20229;-76
2022/08/17 06:00:14;;;;;;;13.77;6.70;;;;;;;23.36;46.23;97442.81;8288077;28;20536;-76
2022/08/17 06:04:31;;;;;;;6.97;5.83;;;;;;;23.71;45.52;97447.00;8288077;28;20229;-76
2022/08/17 06:08:37;;;;;;;8.80;6.03;;;;;;;23.69;45.98;97441.06;8287811;28;20240;-75
2022/08/17 06:12:44;;;;;;;10.80;5.60;;;;;;;23.65;45.46;97441.56;8287867;28;20255;-75
2022/08/17 06:16:51;;;;;;;12.07;6.23;;;;;;;23.63;46.18;97439.06;8287265;28;20240;-73
2022/08/17 06:20:58;;;;;;;13.33;5.93;;;;;;;23.67;45.79;97431.66;8287777;28;20250;-75
2022/08/17 06:25:04;;;;;;;7.57;5.63;;;;;;;23.66;46.36;97436.09;8287189;28;20230;-76
2022/08/17 06:29:21;;;;;;;9.73;6.23;;;;;;;23.82;44.90;97448.53;8287260;28;20277;-76
2022/08/17 06:33:28;;;;;;;17.73;5.50;;;;;;;23.67;44.66;97442.22;8287108;28;20236;-77
2022/08/17 06:37:41;;;;;;;12.80;5.10;;;;;;;24.24;43.71;97441.41;8286913;28;20232;-76
2022/08/17 06:41:49;;;;;;;13.53;5.47;;;;;;;23.88;44.14;97437.31;8286954;28;20231;-76
2022/08/17 06:45:58;;;;;;;8.43;5.50;;;;;;;24.06;44.01;97441.59;8286397;28;20225;-75
2022/08/17 06:50:07;;;;;;;13.00;4.77;;;;;;;24.68;43.39;97446.31;8286426;28;20301;-76
2022/08/17 06:54:16;;;;;;;11.60;5.97;;;;;;;24.51;43.25;97458.75;8256169;28;20226;-75
2022/08/17 06:58:22;;;;;;;14.87;5.40;;;;;;;24.44;43.00;97457.75;8254367;28;20242;-76
2022/08/17 07:02:40;;;;;;;9.80;4.83;;;;;;;25.14;42.04;97463.19;8253131;28;20226;-76
2022/08/17 07:08:00;;;;;;;8.33;5.13;;;;;;;25.18;41.48;97450.44;8253392;28;20245;-75
2022/08/17 07:11:32;;;;;;;11.87;5.57;;;;;;;25.39;41.32;97463.09;8253703;28;20241;-76
2022/08/17 07:15:41;;;;;;;11.60;5.17;;;;;;;25.41;40.89;97469.06;8253734;28;20239;-76
2022/08/17 07:19:46;;;;;;;11.77;5.83;;;;;;;25.69;40.57;97474.69;8253811;28;20233;-77
2022/08/17 07:24:01;;;;;;;9.27;4.93;;;;;;;25.67;40.33;97471.38;8252481;28;20559;-75
2022/08/17 07:28:06;;;;;;;7.00;4.07;;;;;;;25.88;38.84;97473.41;8253194;28;20241;-76
2022/08/17 07:32:10;;;;;;;9.40;4.00;;;;;;;25.61;39.21;97482.69;8252746;28;20227;-74
2022/08/17 07:36:24;;;;;;;11.43;4.50;;;;;;;25.83;39.29;97477.56;8253215;28;20375;-74
2022/08/17 07:40:34;;;;;;;7.83;3.57;;;;;;;26.12;38.21;97477.72;8253163;28;20252;-74
2022/08/17 07:44:52;;;;;;;11.07;4.10;;;;;;;26.26;38.25;97480.59;8252570;28;20241;-74
2022/08/17 07:48:57;;;;;;;7.87;3.80;;;;;;;26.59;37.54;97488.25;8251376;28;20233;-73
2022/08/17 07:53:16;;;;;;;7.07;3.73;;;;;;;26.88;37.59;97476.84;8252409;28;20240;-75
2022/08/17 07:57:35;;;;;;;11.63;4.17;;;;;;;26.92;36.87;97483.44;8252564;28;20244;-74
2022/08/17 08:01:40;;;;;;;9.97;3.60;;;;;;;27.09;36.84;97489.38;8252129;28;20233;-74
2022/08/17 08:05:50;;;;;;;9.50;4.03;;;;;;;27.38;35.95;97488.56;8252205;28;20258;-75
2022/08/17 08:10:04;;;;;;;10.07;3.80;;;;;;;27.20;35.99;97488.09;8251662;28;20453;-75
2022/08/17 08:14:21;;;;;;;10.07;3.47;;;;;;;27.66;35.32;97488.69;8251563;28;20258;-75
2022/08/17 08:18:39;;;;;;;10.37;3.30;;;;;;;28.01;34.53;97491.50;8251840;28;20231;-75
2022/08/17 08:23:05;;;;;;;12.10;3.47;;;;;;;28.27;34.33;97488.25;8251241;28;20241;-74
2022/08/17 08:27:20;;;;;;;9.83;3.10;;;;;;;28.61;33.87;97484.00;8249669;28;20301;-74
2022/08/17 08:31:28;;;;;;;8.03;3.10;;;;;;;28.70;32.98;97478.56;8251498;28;20237;-75
2022/08/17 08:35:37;;;;;;;8.00;2.63;;;;;;;29.11;32.59;97480.41;8250570;28;20245;-74
2022/08/17 08:39:48;;;;;;;9.17;3.10;;;;;;;29.08;32.29;97480.81;8250851;28;20422;-75
2022/08/17 08:44:00;;;;;;;5.20;2.80;;;;;;;29.13;32.19;97476.56;8250149;28;20231;-74
2022/08/17 08:48:13;;;;;;;3.97;2.60;;;;;;;29.74;31.50;97480.25;8250319;28;20232;-74
2022/08/17 08:53:14;;;;;;;7.87;2.80;;;;;;;30.27;30.68;97479.50;8250675;28;20237;-75
2022/08/17 08:57:21;;;;;;;6.20;2.47;;;;;;;29.77;29.92;97474.53;8245533;28;20233;-75
2022/08/17 09:01:37;;;;;;;5.77;2.70;;;;;;;30.05;29.69;97477.03;8250029;28;20259;-74
2022/08/17 09:05:57;;;;;;;7.07;2.80;;;;;;;30.21;29.55;97475.81;8250067;28;20535;-74
2022/08/17 09:10:04;;;;;;;8.23;2.47;;;;;;;30.52;29.71;97469.03;8249682;28;20230;-73
2022/08/17 09:14:13;;;;;;;4.40;2.73;;;;;;;31.21;29.26;97483.72;8250133;28;20238;-75
2022/08/17 09:18:33;;;;;;;8.77;3.10;;;;;;;30.53;28.99;97476.84;8249944;28;20414;-74
2022/08/17 09:22:59;;;;;;;7.47;3.07;;;;;;;31.30;27.88;97468.22;8249251;28;20544;-74
2022/08/17 09:27:08;;;;;;;11.50;2.77;;;;;;;31.65;28.29;97460.69;8248636;28;20250;-74
2022/08/17 09:31:17;;;;;;;11.80;2.60;;;;;;;31.63;27.12;97462.75;8249658;28;20443;-75
2022/08/17 09:35:23;;;;;;;7.57;2.47;;;;;;;32.43;26.84;97464.84;8249510;28;20237;-75
2022/08/17 09:39:37;;;;;;;6.93;2.50;;;;;;;32.97;25.44;97464.34;8249502;28;20249;-77
2022/08/17 09:43:45;;;;;;;10.37;2.80;;;;;;;33.01;26.46;97457.50;8249633;28;20229;-78
2022/08/17 09:47:52;;;;;;;6.40;2.57;;;;;;;33.30;25.84;97462.13;8248809;28;20437;-77
2022/08/17 09:52:00;;;;;;;7.87;2.53;;;;;;;33.36;25.43;97451.50;8249668;28;20231;-79
2022/08/17 09:56:22;;;;;;;6.47;2.93;;;;;;;32.77;24.72;97459.19;8249672;28;20236;-77
2022/08/17 10:00:28;;;;;;;4.03;2.47;;;;;;;33.55;25.20;97453.13;8249514;28;20299;-79
2022/08/17 10:04:42;;;;;;;9.67;2.67;;;;;;;33.92;23.81;97454.91;8249563;28;20239;-79
2022/08/17 10:08:51;;;;;;;6.80;2.50;;;;;;;33.04;23.94;97457.88;8248938;28;20536;-80
2022/08/17 10:12:58;;;;;;;5.07;2.43;;;;;;;32.68;24.53;97447.97;8248457;28;20241;-78
2022/08/17 10:17:05;;;;;;;11.33;2.80;;;;;;;33.86;24.22;97435.97;8248928;28;20537;-78
2022/08/17 10:30:02;;;;;;;3.87;2.30;;;;;;;34.41;23.48;97434.06;8248716;28;20237;-77
2022/08/17 10:34:17;;;;;;;5.60;2.63;;;;;;;33.60;22.33;97439.81;8248819;28;20241;-80
2022/08/17 10:38:31;;;;;;;5.47;2.28;;;;;;;33.96;22.49;97438.06;8251215;28;20241;-80
2022/08/17 10:42:37;;;;;;;5.75;2.47;;;;;;;33.47;23.18;97437.31;8254350;28;20552;-77
2022/08/17 10:46:51;;;;;;;4.43;2.70;;;;;;;32.38;23.35;97451.28;8254222;28;20245;-77
2022/08/17 10:51:06;;;;;;;5.57;2.55;;;;;;;32.75;24.03;97450.56;8253819;28;20240;-78
2022/08/17 10:55:16;;;;;;;4.43;2.50;;;;;;;32.80;24.26;97454.22;8253739;28;20239;-80
2022/08/17 10:59:50;;;;;;;6.60;2.50;;;;;;;32.27;23.96;97460.03;8253374;28;20233;-79
2022/08/17 11:03:56;;;;;;;5.47;2.23;;;;;;;32.76;24.37;97463.75;8230940;28;20239;-78
2022/08/17 11:08:34;;;;;;;3.50;2.43;;;;;;;32.40;23.26;97448.41;8253516;28;20229;-80
2022/08/17 11:12:46;;;;;;;4.70;2.30;;;;;;;33.38;23.11;97436.03;8253492;28;20542;-79
2022/08/17 11:16:58;;;;;;;8.03;2.60;;;;;;;33.48;22.29;97436.28;8253067;28;20416;-88
2022/08/17 11:21:31;;;;;;;6.07;2.57;;;;;;;34.05;22.15;97435.88;8253227;28;20449;-84
2022/08/17 11:25:38;;;;;;;6.53;2.53;;;;;;;35.02;21.55;97442.66;8252894;28;20425;-79
2022/08/17 11:29:51;;;;;;;6.03;2.57;;;;;;;35.23;20.43;97446.59;8253089;28;20236;-83
2022/08/17 11:34:05;;;;;;;4.90;2.45;;;;;;;34.09;22.59;97442.41;8252675;28;20243;-79
2022/08/17 11:38:16;;;;;;;5.97;2.50;;;;;;;33.49;22.69;97443.28;8252444;28;20222;-80
2022/08/17 11:42:30;;;;;;;3.97;2.28;;;;;;;33.76;22.36;97454.50;8252529;28;20226;-82
2022/08/17 11:51:34;;;;;;;12.48;2.67;;;;;;;33.18;23.26;97457.72;8251315;28;20243;-82
2022/08/17 11:56:03;;;;;;;10.77;2.70;;;;;;;32.50;23.65;97454.06;8252195;28;20228;-81
2022/08/17 12:00:09;;;;;;;4.30;2.35;;;;;;;32.69;23.44;97449.59;8251855;28;20245;-81
2022/08/17 12:04:26;;;;;;;7.80;2.90;;;;;;;32.63;22.75;97450.47;8252016;28;20412;-82
2022/08/17 12:08:32;;;;;;;6.43;2.70;;;;;;;32.70;24.33;97443.19;8252011;28;20238;-80
2022/08/17 12:12:35;;;;;;;5.80;2.60;;;;;;;33.01;23.23;97441.41;8252149;28;20240;-79
2022/08/17 12:16:41;;;;;;;7.77;3.07;;;;;;;32.71;22.64;97436.78;8251457;28;20230;-82
2022/08/17 12:20:51;;;;;;;4.50;2.43;;;;;;;32.90;23.74;97430.38;8251513;28;20431;-81
2022/08/17 12:25:04;;;;;;;4.27;2.33;;;;;;;32.64;23.55;97433.38;8250721;28;20429;-81
2022/08/17 12:29:13;;;;;;;4.57;2.40;;;;;;;33.17;22.19;97430.09;8250862;28;20243;-81
2022/08/17 12:33:36;;;;;;;4.07;2.40;;;;;;;33.25;23.42;97437.81;8250867;28;20232;-80
2022/08/17 12:37:45;;;;;;;6.27;2.50;;;;;;;33.19;22.75;97436.06;8250688;28;20234;-79
2022/08/17 12:41:50;;;;;;;3.93;2.47;;;;;;;32.79;22.16;97435.69;8250110;28;20300;-78
2022/08/17 12:45:58;;;;;;;5.97;2.43;;;;;;;33.48;21.41;97429.03;8250696;28;20227;-78
2022/08/17 12:50:07;;;;;;;3.57;2.33;;;;;;;33.24;23.11;97427.31;8249990;28;20254;-78
2022/08/17 12:54:38;;;;;;;3.90;2.20;;;;;;;32.78;22.71;97424.13;8250126;28;20414;-77
2022/08/17 12:58:47;;;;;;;3.03;2.20;;;;;;;32.56;23.05;97433.59;8250018;28;20419;-76
2022/08/17 13:02:52;;;;;;;3.00;2.13;;;;;;;32.30;23.15;97425.59;8249326;28;20231;-76
2022/08/17 13:06:55;;;;;;;5.40;2.30;;;;;;;32.04;23.17;97434.69;8249810;28;20231;-77
2022/08/17 13:11:08;;;;;;;3.53;2.37;;;;;;;31.79;23.71;97436.50;8249275;28;20245;-77
2022/08/17 13:15:19;;;;;;;8.77;2.50;;;;;;;31.61;23.30;97430.03;8249559;28;20229;-77
2022/08/17 13:19:23;;;;;;;6.67;2.80;;;;;;;31.37;25.00;97437.75;8249735;28;20223;-76
2022/08/17 13:23:54;;;;;;;7.63;2.60;;;;;;;31.26;24.66;97434.91;8249390;28;20509;-79
2022/08/17 13:27:59;;;;;;;4.03;2.63;;;;;;;31.20;25.30;97433.91;8249446;28;20525;-76
2022/08/17 13:32:16;;;;;;;4.87;2.67;;;;;;;31.18;25.19;97434.13;8249130;28;20236;-78
2022/08/17 13:36:29;;;;;;;5.53;2.40;;;;;;;31.09;25.42;97435.44;8249329;28;20241;-75
2022/08/17 13:40:48;;;;;;;3.23;2.53;;;;;;;31.05;24.68;97434.19;8249235;28;20233;-79
2022/08/17 13:44:52;;;;;;;3.53;2.17;;;;;;;30.98;24.80;97436.91;8248694;28;20319;-74
2022/08/17 13:49:01;;;;;;;2.83;2.10;;;;;;;31.08;25.30;97430.28;8248741;28;20231;-74
2022/08/17 13:53:16;;;;;;;3.03;2.50;;;;;;;31.28;25.48;97428.34;8248805;28;20355;-75
2022/08/17 13:57:22;;;;;;;4.47;2.50;;;;;;;31.40;25.72;97419.63;8248720;28;20234;-75
2022/08/17 14:01:31;;;;;;;6.27;2.60;;;;;;;31.44;25.57;97410.16;8248621;28;20237;-78
2022/08/17 14:05:34;;;;;;;13.33;2.63;;;;;;;31.12;26.11;97418.13;8248596;28;20238;-77
2022/08/17 14:09:44;;;;;;;8.50;2.70;;;;;;;31.10;26.17;97409.50;8248469;28;20245;-78
2022/08/17 14:13:47;;;;;;;5.77;2.60;;;;;;;31.22;26.11;97399.75;8251425;28;20253;-76
2022/08/17 14:17:54;;;;;;;6.87;2.70;;;;;;;31.34;26.53;97416.78;8254439;28;20236;-76
2022/08/17 14:21:58;;;;;;;8.27;2.60;;;;;;;31.80;26.55;97412.19;8254644;28;20260;-77
2022/08/17 14:26:01;;;;;;;8.27;2.70;;;;;;;32.05;25.74;97403.41;8254318;28;20249;-75
2022/08/17 14:30:05;;;;;;;14.67;2.83;;;;;;;31.94;26.27;97411.03;8254078;28;20243;-75
2022/08/17 14:34:09;;;;;;;7.00;2.50;;;;;;;31.76;26.63;97409.13;8254253;28;20252;-77
2022/08/17 14:38:13;;;;;;;9.20;2.90;;;;;;;31.65;26.56;97417.88;8254095;28;20552;-77
2022/08/17 14:42:17;;;;;;;7.70;2.67;;;;;;;31.77;26.56;97421.47;8254028;28;20243;-76
2022/08/17 14:46:20;;;;;;;8.77;2.50;;;;;;;31.44;26.65;97412.81;8253673;28;20538;-76
2022/08/17 14:50:24;;;;;;;8.70;2.60;;;;;;;31.37;27.37;97404.81;8253402;28;20251;-76
2022/08/17 14:54:28;;;;;;;12.43;3.07;;;;;;;30.99;27.10;97405.63;8253574;28;20229;-77
2022/08/17 14:58:36;;;;;;;13.80;2.77;;;;;;;30.79;27.61;97411.03;8253354;28;20616;-77
2022/08/17 15:02:47;;;;;;;5.67;2.63;;;;;;;30.53;28.03;97414.59;8253254;28;20256;-76
2022/08/17 15:06:51;;;;;;;6.37;2.77;;;;;;;30.69;27.68;97415.97;8252745;28;20226;-76
2022/08/17 15:10:54;;;;;;;13.27;3.07;;;;;;;30.94;28.09;97405.47;8252904;28;20528;-76
2022/08/17 15:14:59;;;;;;;10.80;2.60;;;;;;;30.91;27.94;97395.19;8253056;28;20233;-76
2022/08/17 15:19:02;;;;;;;10.87;2.77;;;;;;;30.54;28.02;97394.84;8252915;28;20428;-76
2022/08/17 15:23:08;;;;;;;14.90;3.23;;;;;;;30.56;28.49;97396.28;8252407;28;20242;-78
2022/08/17 15:27:11;;;;;;;8.30;2.80;;;;;;;30.47;28.55;97394.06;8251627;28;20249;-76
2022/08/17 15:31:14;;;;;;;6.10;3.20;;;;;;;30.46;28.79;97395.88;8252372;28;20243;-75
2022/08/17 15:35:17;;;;;;;6.60;2.70;;;;;;;30.39;28.86;97398.59;8252227;28;20231;-79
2022/08/17 15:39:30;;;;;;;27.33;3.30;;;;;;;30.25;28.86;97396.94;8251862;28;20235;-78
2022/08/17 15:43:33;;;;;;;11.20;2.57;;;;;;;30.11;28.89;97404.13;8251888;28;20234;-77
2022/08/17 15:47:36;;;;;;;8.23;4.10;;;;;;;30.20;28.88;97402.09;8251951;28;20238;-75
2022/08/17 15:51:39;;;;;;;10.43;2.80;;;;;;;30.02;29.02;97413.38;8251808;28;20242;-76
2022/08/17 15:55:44;;;;;;;8.80;3.07;;;;;;;29.99;29.10;97408.47;8251448;28;20238;-76
2022/08/17 15:59:47;;;;;;;11.03;2.90;;;;;;;29.90;29.05;97405.16;8251093;28;20239;-77
2022/08/17 16:04:00;;;;;;;8.67;2.57;;;;;;;29.94;29.04;97408.25;8250972;28;20357;-78
2022/08/17 16:08:23;;;;;;;10.13;2.70;;;;;;;29.80;29.33;97407.44;8251349;28;20230;-79
2022/08/17 16:12:28;;;;;;;8.47;2.90;;;;;;;29.76;29.34;97411.53;8250902;28;20238;-76
2022/08/17 16:16:31;;;;;;;6.27;2.70;;;;;;;29.68;29.73;97407.16;8250600;28;20237;-75
2022/08/17 16:20:34;;;;;;;11.10;3.10;;;;;;;29.59;29.96;97411.88;8250725;28;20237;-73
2022/08/17 16:24:39;;;;;;;4.33;2.70;;;;;;;29.68;29.61;97411.69;8250409;28;20239;-79
2022/08/17 16:28:50;;;;;;;7.23;2.90;;;;;;;29.93;29.88;97404.75;8249877;28;20224;-80
2022/08/17 16:32:55;;;;;;;14.73;3.20;;;;;;;30.04;29.42;97408.66;8250338;28;20237;-77
2022/08/17 16:36:58;;;;;;;8.17;3.57;;;;;;;29.85;29.43;97393.47;8250273;28;20245;-79
2022/08/17 16:41:01;;;;;;;11.87;5.20;;;;;;;29.93;29.25;97395.91;8250260;28;20234;-78
2022/08/17 16:45:08;;;;;;;6.33;3.10;;;;;;;29.85;29.87;97396.94;8250109;28;20238;-76
2022/08/17 16:49:12;;;;;;;6.67;3.00;;;;;;;29.78;29.70;97386.28;8249889;28;20232;-78
2022/08/17 16:53:35;;;;;;;12.57;3.63;;;;;;;29.67;29.91;97381.53;8249793;28;20237;-77
2022/08/17 16:57:37;;;;;;;9.53;3.30;;;;;;;29.63;30.66;97380.28;8249688;28;20246;-76
2022/08/17 17:01:58;;;;;;;17.63;3.40;;;;;;;29.56;30.79;97372.25;8249094;28;20240;-77
2022/08/17 17:06:06;;;;;;;7.60;3.67;;;;;;;29.61;30.52;97372.47;8249514;28;20419;-77
2022/08/17 17:10:12;;;;;;;5.93;3.20;;;;;;;29.56;30.79;97380.25;8250658;28;20227;-75
2022/08/17 17:14:18;;;;;;;9.90;3.00;;;;;;;29.47;30.99;97368.13;8249731;28;20237;-76
2022/08/17 17:18:29;;;;;;;8.50;3.10;;;;;;;29.37;30.55;97368.53;8249356;28;20571;-76
2022/08/17 17:22:38;;;;;;;7.10;2.70;;;;;;;29.35;30.78;97367.09;8249370;28;20238;-77
2022/08/17 17:26:54;;;;;;;8.03;3.10;;;;;;;29.33;31.16;97375.31;8248706;28;20241;-74
2022/08/17 17:31:01;;;;;;;6.77;3.03;;;;;;;29.27;31.30;97367.31;8248748;28;20390;-75
2022/08/17 17:35:09;;;;;;;5.60;3.07;;;;;;;29.21;31.56;97361.75;8249279;28;20230;-75
2022/08/17 17:39:16;;;;;;;6.13;2.93;;;;;;;29.12;30.86;97362.09;8249179;28;20235;-76
2022/08/17 17:43:20;;;;;;;8.17;2.73;;;;;;;29.08;30.98;97347.53;8248710;28;20232;-75
2022/08/17 17:47:40;;;;;;;8.97;3.03;;;;;;;29.10;31.50;97350.81;8250194;28;20534;-74
2022/08/17 17:51:48;;;;;;;8.77;3.13;;;;;;;29.01;31.84;97356.31;8255282;28;20243;-76
2022/08/17 17:56:22;;;;;;;7.87;4.20;;;;;;;29.00;33.08;97352.03;8255000;28;20252;-76
2022/08/17 18:00:48;;;;;;;11.43;3.87;;;;;;;28.93;32.41;97348.50;8254772;28;20241;-76
2022/08/17 18:05:01;;;;;;;8.63;3.90;;;;;;;28.93;34.26;97353.84;8254647;28;20226;-76
2022/08/17 18:09:12;;;;;;;11.83;4.43;;;;;;;28.89;34.85;97341.13;8254895;28;20231;-77
2022/08/17 18:13:26;;;;;;;9.37;3.97;;;;;;;28.80;34.32;97346.63;8254614;28;20243;-76
2022/08/17 18:17:29;;;;;;;7.60;3.40;;;;;;;28.75;34.79;97345.56;8254634;28;20233;-76
2022/08/17 18:21:36;;;;;;;7.40;4.00;;;;;;;28.73;34.83;97352.94;8254517;28;20230;-76
2022/08/17 18:25:43;;;;;;;11.80;3.93;;;;;;;28.66;34.14;97343.09;8253804;28;20278;-76
2022/08/17 18:29:47;;;;;;;9.07;2.80;;;;;;;28.42;33.90;97338.22;8254011;28;20413;-79
2022/08/17 18:33:52;;;;;;;13.00;3.10;;;;;;;28.40;33.89;97334.94;8253632;28;20321;-78
2022/08/17 18:37:57;;;;;;;7.47;3.10;;;;;;;28.31;34.22;97344.09;8253912;28;20415;-75
2022/08/17 18:42:02;;;;;;;56.40;5.63;;;;;;;28.20;34.13;97343.63;8253897;28;20234;-75
2022/08/17 18:46:20;;;;;;;18.30;3.93;;;;;;;28.17;34.49;97343.19;8253924;28;20263;-76
2022/08/17 18:50:38;;;;;;;9.43;3.33;;;;;;;28.09;34.71;97352.16;8252586;28;20241;-76
2022/08/17 18:55:01;;;;;;;12.20;3.23;;;;;;;27.98;35.30;97358.00;8253824;28;20236;-77
2022/08/17 18:59:11;;;;;;;14.90;3.47;;;;;;;27.91;36.19;97373.09;8253001;28;20241;-78
2022/08/17 19:03:22;;;;;;;15.57;3.57;;;;;;;27.80;35.41;97374.44;8253295;28;20233;-78
2022/08/17 19:07:29;;;;;;;18.40;3.90;;;;;;;27.72;35.62;97371.88;8253165;28;20237;-78
2022/08/17 19:11:34;;;;;;;11.40;3.67;;;;;;;27.72;35.69;97369.22;8253038;28;20241;-79
2022/08/17 19:15:42;;;;;;;9.20;3.67;;;;;;;27.71;35.87;97363.09;8252656;28;20231;-77
2022/08/17 19:19:49;;;;;;;7.90;3.53;;;;;;;27.62;35.40;97367.72;8252839;28;20419;-78
2022/08/17 19:23:57;;;;;;;11.30;3.27;;;;;;;27.58;35.65;97370.94;8252063;28;20232;-77
2022/08/17 19:28:07;;;;;;;12.17;3.90;;;;;;;27.55;35.55;97364.19;8252198;28;20233;-76
2022/08/17 19:32:27;;;;;;;13.27;4.17;;;;;;;27.38;35.65;97360.09;8252141;28;20260;-80
2022/08/17 19:36:36;;;;;;;7.23;3.90;;;;;;;27.31;35.59;97365.38;8252312;28;20229;-77
2022/08/17 19:40:46;;;;;;;11.57;4.03;;;;;;;27.27;35.75;97356.94;8251952;28;20237;-77
2022/08/17 19:45:02;;;;;;;13.90;4.10;;;;;;;27.21;35.94;97356.88;8251698;28;20220;-77
2022/08/17 19:49:10;;;;;;;8.03;3.60;;;;;;;27.11;36.00;97349.19;8252037;28;20249;-78
2022/08/17 19:53:20;;;;;;;12.37;4.00;;;;;;;27.02;36.13;97345.00;8251831;28;20423;-81